createdAt,value
2019-01-29T00:00:48.616Z,1.40
2019-01-29T00:03:16.095Z,1.40
2019-01-29T00:05:43.785Z,1.50
2019-01-29T00:08:11.332Z,1.50
2019-01-29T00:10:39.011Z,1.40
2019-01-29T00:13:06.566Z,1.50
2019-01-29T00:15:34.704Z,1.50
2019-01-29T00:18:02.251Z,1.50
2019-01-29T00:20:29.803Z,1.50
2019-01-29T00:22:57.467Z,1.50
2019-01-29T00:25:25.041Z,1.50
2019-01-29T00:27:52.845Z,1.50
2019-01-29T00:30:20.471Z,1.50
2019-01-29T00:32:49.984Z,1.40
2019-01-29T00:35:17.820Z,1.40
2019-01-29T00:37:45.351Z,1.50
2019-01-29T00:40:13.292Z,1.50
2019-01-29T00:42:41.146Z,1.50
2019-01-29T00:45:08.733Z,1.50
2019-01-29T00:47:36.688Z,1.50
2019-01-29T00:50:05.897Z,1.50
2019-01-29T00:52:41.618Z,1.50
2019-01-29T00:55:03.301Z,1.50
2019-01-29T00:57:31.249Z,1.60
2019-01-29T00:59:59.148Z,1.60
2019-01-29T01:02:26.959Z,1.60
2019-01-29T01:04:55.406Z,1.70
2019-01-29T01:07:23.243Z,1.70
2019-01-29T01:09:57.023Z,1.70
2019-01-29T01:12:22.019Z,1.70
2019-01-29T01:14:49.643Z,1.70
2019-01-29T01:17:17.219Z,1.70
2019-01-29T01:19:44.680Z,1.70
2019-01-29T01:22:12.588Z,1.70
2019-01-29T01:24:40.488Z,1.70
2019-01-29T01:27:08.083Z,1.70
2019-01-29T01:29:35.918Z,1.60
2019-01-29T01:32:03.796Z,1.60
2019-01-29T01:34:31.341Z,1.60
2019-01-29T01:36:58.944Z,1.60
2019-01-29T01:39:27.051Z,1.60
2019-01-29T01:41:54.556Z,1.60
2019-01-29T01:44:24.952Z,1.70
2019-01-29T01:46:52.784Z,1.70
2019-01-29T01:49:20.372Z,1.70
2019-01-29T01:51:50.405Z,1.60
2019-01-29T01:54:18.083Z,1.70
2019-01-29T01:56:45.652Z,1.70
2019-01-29T01:59:13.468Z,1.70
2019-01-29T02:01:40.980Z,1.70
2019-01-29T02:04:08.923Z,1.70
2019-01-29T02:06:37.788Z,1.70
2019-01-29T02:09:07.833Z,1.70
2019-01-29T02:11:36.529Z,1.80
2019-01-29T02:14:04.752Z,1.70
2019-01-29T02:16:35.064Z,1.80
2019-01-29T02:19:02.916Z,1.70
2019-01-29T02:21:30.512Z,1.70
2019-01-29T02:23:58.573Z,1.70
2019-01-29T02:26:26.126Z,1.70
2019-01-29T02:28:54.359Z,1.70
2019-01-29T02:31:21.974Z,1.70
2019-01-29T02:33:50.432Z,1.70
2019-01-29T02:36:18.778Z,1.70
2019-01-29T02:38:46.439Z,1.70
2019-01-29T02:41:14.884Z,1.60
2019-01-29T02:43:42.597Z,1.70
2019-01-29T02:46:10.694Z,1.70
2019-01-29T02:48:40.455Z,1.70
2019-01-29T02:51:08.046Z,1.80
2019-01-29T02:53:35.668Z,1.80
2019-01-29T02:56:03.336Z,1.80
2019-01-29T02:58:31.435Z,1.70
2019-01-29T03:00:59.629Z,1.80
2019-01-29T03:03:27.533Z,1.80
2019-01-29T03:05:55.126Z,1.80
2019-01-29T03:08:24.714Z,1.80
2019-01-29T03:10:52.260Z,1.70
2019-01-29T03:13:20.184Z,1.60
2019-01-29T03:15:48.020Z,1.60
2019-01-29T03:18:15.918Z,1.60
2019-01-29T03:20:44.350Z,1.50
2019-01-29T03:23:13.809Z,1.60
2019-01-29T03:25:41.477Z,1.60
2019-01-29T03:28:09.136Z,1.60
2019-01-29T03:30:36.755Z,1.60
2019-01-29T03:33:04.295Z,1.70
2019-01-29T03:35:36.815Z,1.60
2019-01-29T03:38:04.343Z,1.60
2019-01-29T03:40:32.656Z,1.50
2019-01-29T03:43:00.624Z,1.50
2019-01-29T03:45:28.519Z,1.50
2019-01-29T03:47:58.696Z,1.60
2019-01-29T03:50:26.381Z,1.50
2019-01-29T03:52:55.072Z,1.50
2019-01-29T03:55:23.207Z,1.50
2019-01-29T03:57:50.788Z,1.40
2019-01-29T04:00:23.430Z,1.40
2019-01-29T04:02:51.782Z,1.40
2019-01-29T04:05:19.980Z,1.40
2019-01-29T04:07:47.506Z,1.40
2019-01-29T04:10:16.065Z,1.40
2019-01-29T04:12:43.974Z,1.40
2019-01-29T04:15:14.022Z,1.30
2019-01-29T04:17:41.896Z,1.40
2019-01-29T04:20:14.462Z,1.40
2019-01-29T04:22:41.973Z,1.50
2019-01-29T04:25:09.913Z,1.40
2019-01-29T04:27:37.474Z,1.40
2019-01-29T04:30:05.920Z,1.40
2019-01-29T04:32:33.809Z,1.40
2019-01-29T04:35:01.633Z,1.40
2019-01-29T04:37:30.701Z,1.40
2019-01-29T04:39:58.152Z,1.50
2019-01-29T04:42:26.019Z,1.50
2019-01-29T04:44:53.483Z,1.40
2019-01-29T04:47:21.245Z,1.50
2019-01-29T04:49:49.115Z,1.50
2019-01-29T04:52:16.875Z,1.50
2019-01-29T04:54:44.365Z,1.60
2019-01-29T04:57:12.116Z,1.60
2019-01-29T04:59:39.991Z,1.60
2019-01-29T05:02:08.536Z,1.60
2019-01-29T05:04:36.381Z,1.60
2019-01-29T05:07:03.896Z,1.60
2019-01-29T05:09:31.758Z,1.50
2019-01-29T05:11:59.681Z,1.60
2019-01-29T05:14:28.235Z,1.40
2019-01-29T05:16:56.018Z,1.40
2019-01-29T05:19:23.951Z,1.40
2019-01-29T05:21:51.419Z,1.40
2019-01-29T05:24:19.754Z,1.50
2019-01-29T05:26:47.188Z,1.50
2019-01-29T05:29:14.752Z,1.50
2019-01-29T05:31:42.276Z,1.50
2019-01-29T05:34:09.761Z,1.60
2019-01-29T05:36:37.558Z,1.60
2019-01-29T05:39:07.950Z,1.50
2019-01-29T05:41:36.189Z,1.50
2019-01-29T05:44:04.224Z,1.50
2019-01-29T05:46:32.057Z,1.50
2019-01-29T05:48:59.812Z,1.50
2019-01-29T05:51:27.286Z,1.50
2019-01-29T05:54:02.266Z,1.60
2019-01-29T05:56:30.110Z,1.50
2019-01-29T05:58:57.551Z,1.60
2019-01-29T06:01:25.035Z,1.60
2019-01-29T06:03:53.225Z,1.60
2019-01-29T06:06:20.797Z,1.60
2019-01-29T06:08:48.306Z,1.60
2019-01-29T06:11:17.164Z,1.50
2019-01-29T06:13:45.768Z,1.40
2019-01-29T06:16:13.953Z,1.30
2019-01-29T06:18:41.711Z,1.30
2019-01-29T06:21:09.187Z,1.40
2019-01-29T06:23:37.024Z,1.30
2019-01-29T06:26:04.828Z,1.30
2019-01-29T06:28:32.961Z,1.30
2019-01-29T06:31:00.400Z,1.30
2019-01-29T06:33:27.969Z,1.30
2019-01-29T06:35:55.624Z,1.30
2019-01-29T06:38:23.247Z,1.30
2019-01-29T06:40:50.743Z,1.30
2019-01-29T06:43:18.349Z,1.30
2019-01-29T06:45:45.885Z,1.40
2019-01-29T06:48:13.345Z,1.30
2019-01-29T06:50:40.934Z,1.30
2019-01-29T06:53:09.914Z,1.40
2019-01-29T06:55:37.715Z,1.40
2019-01-29T06:58:05.623Z,1.40
2019-01-29T07:00:34.073Z,1.50
2019-01-29T07:03:02.188Z,1.50
2019-01-29T07:05:30.877Z,1.50
2019-01-29T07:07:58.783Z,1.50
2019-01-29T07:10:28.000Z,1.60
2019-01-29T07:12:56.352Z,1.60
2019-01-29T07:15:43.435Z,1.60
2019-01-29T07:18:32.133Z,1.60
2019-01-29T07:21:00.236Z,1.60
2019-01-29T07:23:28.334Z,1.50
2019-01-29T07:25:56.219Z,1.50
2019-01-29T07:28:24.669Z,1.50
2019-01-29T07:30:52.655Z,1.50
2019-01-29T07:33:23.007Z,1.60
2019-01-29T07:35:51.365Z,1.60
2019-01-29T07:38:19.371Z,1.60
2019-01-29T07:40:51.371Z,1.60
2019-01-29T07:43:19.606Z,1.70
2019-01-29T07:45:48.256Z,1.60
2019-01-29T07:48:16.242Z,1.70
2019-01-29T07:50:43.779Z,1.70
2019-01-29T07:53:11.624Z,1.70
2019-01-29T07:55:39.160Z,1.80
2019-01-29T07:58:06.916Z,1.90
2019-01-29T08:00:34.682Z,1.90
2019-01-29T08:03:02.666Z,1.90
2019-01-29T08:05:30.434Z,1.90
2019-01-29T08:07:58.018Z,2.00
2019-01-29T08:10:25.540Z,2.00
2019-01-29T08:12:53.334Z,2.10
2019-01-29T08:15:21.306Z,2.10
2019-01-29T08:17:48.939Z,2.10
2019-01-29T08:20:16.895Z,2.20
2019-01-29T08:22:44.677Z,2.20
2019-01-29T08:25:12.737Z,2.20
2019-01-29T08:27:40.319Z,2.30
2019-01-29T08:30:08.252Z,2.30
2019-01-29T08:32:36.088Z,2.30
2019-01-29T08:35:04.531Z,2.40
2019-01-29T08:37:32.650Z,2.30
2019-01-29T08:40:00.396Z,2.30
2019-01-29T08:42:27.880Z,2.50
2019-01-29T08:44:55.675Z,2.50
2019-01-29T08:47:23.436Z,2.50
2019-01-29T08:49:51.276Z,2.60
2019-01-29T08:52:18.758Z,2.70
2019-01-29T08:54:46.229Z,2.90
2019-01-29T08:57:13.694Z,3.00
2019-01-29T08:59:41.535Z,3.00
2019-01-29T09:02:09.757Z,3.00
2019-01-29T09:04:37.887Z,2.90
2019-01-29T09:07:05.383Z,2.90
2019-01-29T09:09:32.863Z,3.00
2019-01-29T09:12:00.343Z,3.00
2019-01-29T09:14:27.856Z,2.90
2019-01-29T09:16:55.947Z,2.90
2019-01-29T09:19:23.688Z,2.80
2019-01-29T09:21:51.708Z,2.60
2019-01-29T09:24:19.569Z,2.60
2019-01-29T09:26:47.339Z,2.60
2019-01-29T09:29:17.787Z,2.60
2019-01-29T09:31:44.135Z,2.60
2019-01-29T09:34:12.374Z,2.70
2019-01-29T09:36:40.276Z,2.70
2019-01-29T09:39:09.590Z,2.60
2019-01-29T09:41:37.181Z,2.60
2019-01-29T09:44:05.078Z,2.50
2019-01-29T09:46:32.856Z,2.40
2019-01-29T09:49:00.445Z,2.30
2019-01-29T09:51:27.936Z,2.30
2019-01-29T09:53:56.067Z,2.30
2019-01-29T09:56:23.563Z,2.40
2019-01-29T09:58:51.095Z,2.50
2019-01-29T10:01:18.926Z,2.50
2019-01-29T10:03:46.420Z,2.50
2019-01-29T10:06:14.324Z,2.50
2019-01-29T10:08:41.921Z,2.50
2019-01-29T10:11:09.457Z,2.60
2019-01-29T10:13:37.067Z,2.70
2019-01-29T10:16:04.797Z,2.60
2019-01-29T10:18:32.821Z,2.70
2019-01-29T10:21:01.021Z,2.70
2019-01-29T10:23:29.039Z,2.70
2019-01-29T10:25:56.579Z,2.80
2019-01-29T10:28:24.079Z,2.70
2019-01-29T10:30:52.240Z,2.80
2019-01-29T10:33:20.118Z,2.90
2019-01-29T10:35:47.867Z,3.10
2019-01-29T10:38:15.374Z,3.10
2019-01-29T10:40:43.522Z,3.10
2019-01-29T10:43:11.012Z,3.30
2019-01-29T10:45:38.852Z,3.40
2019-01-29T10:48:06.372Z,3.50
2019-01-29T10:50:33.993Z,3.40
2019-01-29T10:53:01.449Z,3.30
2019-01-29T10:55:29.409Z,3.30
2019-01-29T10:58:16.305Z,3.30
2019-01-29T11:00:45.218Z,3.40
2019-01-29T11:03:12.778Z,3.30
2019-01-29T11:05:40.359Z,3.20
2019-01-29T11:08:08.652Z,3.40
2019-01-29T11:10:36.701Z,3.30
2019-01-29T11:13:04.847Z,3.40
2019-01-29T11:15:38.051Z,3.50
2019-01-29T11:18:08.865Z,3.50
2019-01-29T11:20:37.024Z,3.60
2019-01-29T11:23:04.595Z,3.50
2019-01-29T11:25:32.084Z,3.40
2019-01-29T11:27:59.680Z,3.50
2019-01-29T11:30:28.074Z,3.40
2019-01-29T11:32:56.028Z,3.30
2019-01-29T11:35:24.173Z,3.30
2019-01-29T11:37:52.016Z,3.50
2019-01-29T11:40:21.550Z,3.50
2019-01-29T11:42:51.041Z,3.40
2019-01-29T11:45:27.190Z,3.40
2019-01-29T11:47:55.018Z,3.50
2019-01-29T11:50:22.799Z,3.20
2019-01-29T11:52:50.577Z,3.30
2019-01-29T11:55:18.462Z,3.40
2019-01-29T11:57:46.953Z,3.60
2019-01-29T12:00:20.580Z,3.50
2019-01-29T12:02:48.388Z,3.70
2019-01-29T12:05:16.194Z,3.80
2019-01-29T12:07:44.019Z,3.80
2019-01-29T12:10:11.855Z,4.00
2019-01-29T12:12:39.388Z,4.10
2019-01-29T12:15:08.541Z,4.20
2019-01-29T12:17:35.971Z,4.20
2019-01-29T12:20:04.376Z,4.20
2019-01-29T12:22:33.104Z,4.30
2019-01-29T12:25:00.974Z,4.40
2019-01-29T12:27:28.487Z,4.50
2019-01-29T12:29:56.035Z,4.30
2019-01-29T12:32:23.518Z,4.00
2019-01-29T12:34:51.338Z,3.90
2019-01-29T12:37:18.840Z,3.70
2019-01-29T12:39:46.479Z,3.70
2019-01-29T12:42:14.015Z,3.60
2019-01-29T12:44:42.237Z,3.50
2019-01-29T12:47:10.005Z,3.60
2019-01-29T12:49:38.865Z,3.50
2019-01-29T12:52:16.980Z,3.50
2019-01-29T12:54:44.812Z,3.60
2019-01-29T12:57:12.592Z,3.50
2019-01-29T12:59:40.743Z,3.50
2019-01-29T13:02:08.781Z,3.40
2019-01-29T13:04:36.644Z,3.60
2019-01-29T13:07:04.507Z,3.50
2019-01-29T13:09:32.387Z,3.50
2019-01-29T13:11:59.891Z,3.60
2019-01-29T13:14:27.775Z,3.60
2019-01-29T13:16:55.227Z,3.50
2019-01-29T13:19:23.102Z,3.40
2019-01-29T13:21:51.254Z,3.20
2019-01-29T13:24:19.432Z,3.20
2019-01-29T13:26:47.038Z,3.40
2019-01-29T13:29:15.102Z,3.40
2019-01-29T13:31:42.648Z,3.50
2019-01-29T13:34:11.060Z,3.60
2019-01-29T13:36:38.710Z,3.70
2019-01-29T13:39:07.902Z,3.80
2019-01-29T13:41:35.846Z,4.10
2019-01-29T13:44:04.030Z,4.10
2019-01-29T13:46:31.525Z,4.10
2019-01-29T13:48:59.359Z,4.00
2019-01-29T13:51:27.542Z,3.90
2019-01-29T13:53:55.401Z,4.10
2019-01-29T13:56:23.207Z,4.10
2019-01-29T13:58:50.692Z,4.40
2019-01-29T14:01:18.502Z,4.30
2019-01-29T14:03:49.106Z,4.10
2019-01-29T14:06:16.911Z,4.60
2019-01-29T14:08:44.745Z,4.60
2019-01-29T14:11:12.286Z,4.70
2019-01-29T14:13:40.427Z,4.40
2019-01-29T14:16:11.340Z,4.20
2019-01-29T14:18:38.815Z,4.10
2019-01-29T14:21:06.718Z,4.10
2019-01-29T14:23:34.814Z,4.20
2019-01-29T14:26:02.341Z,4.20
2019-01-29T14:28:30.199Z,4.30
2019-01-29T14:30:58.392Z,4.20
2019-01-29T14:33:26.324Z,4.20
2019-01-29T14:35:54.473Z,4.10
2019-01-29T14:39:10.099Z,4.00
2019-01-29T14:41:37.975Z,3.90
2019-01-29T14:44:29.766Z,4.00
2019-01-29T14:46:57.254Z,3.90
2019-01-29T14:49:24.733Z,3.80
2019-01-29T14:51:52.324Z,3.80
2019-01-29T14:54:20.725Z,4.50
2019-01-29T14:56:56.382Z,5.60
2019-01-29T14:59:17.889Z,6.30
2019-01-29T15:01:45.903Z,6.30
2019-01-29T15:04:13.925Z,6.00
2019-01-29T15:06:41.352Z,6.00
2019-01-29T15:09:10.656Z,5.90
2019-01-29T15:11:38.844Z,5.50
2019-01-29T15:14:06.704Z,5.00
2019-01-29T15:16:53.737Z,4.70
2019-01-29T15:19:23.854Z,4.40
2019-01-29T15:21:51.875Z,4.10
2019-01-29T15:24:20.895Z,3.80
2019-01-29T15:26:48.351Z,3.80
2019-01-29T15:29:16.142Z,3.60
2019-01-29T15:31:44.062Z,3.50
2019-01-29T15:34:11.860Z,3.40
2019-01-29T15:36:39.813Z,3.30
2019-01-29T15:39:08.670Z,3.20
2019-01-29T15:41:36.675Z,3.00
2019-01-29T15:44:04.540Z,3.00
2019-01-29T15:46:32.362Z,2.90
2019-01-29T15:49:00.571Z,2.80
2019-01-29T15:51:28.042Z,2.70
2019-01-29T15:53:55.575Z,2.60
2019-01-29T15:56:23.105Z,2.70
2019-01-29T15:58:50.734Z,2.60
2019-01-29T16:01:18.505Z,2.60
2019-01-29T16:03:45.962Z,2.50
2019-01-29T16:06:13.516Z,2.50
2019-01-29T16:08:41.517Z,2.50
2019-01-29T16:11:09.372Z,2.50
2019-01-29T16:13:37.310Z,2.40
2019-01-29T16:16:05.556Z,2.40
2019-01-29T16:18:34.589Z,2.40
2019-01-29T16:21:09.316Z,2.40
2019-01-29T16:23:36.900Z,2.40
2019-01-29T16:26:04.455Z,2.30
2019-01-29T16:28:32.532Z,2.30
2019-01-29T16:31:02.584Z,2.30
2019-01-29T16:33:30.209Z,2.30
2019-01-29T16:35:58.240Z,2.30
2019-01-29T16:38:25.772Z,2.40
2019-01-29T16:41:00.412Z,2.40
2019-01-29T16:43:22.891Z,2.30
2019-01-29T16:45:50.318Z,2.30
2019-01-29T16:48:24.069Z,2.30
2019-01-29T16:50:51.574Z,2.20
2019-01-29T16:53:20.224Z,2.30
2019-01-29T16:55:48.044Z,2.30
2019-01-29T16:58:16.413Z,2.20
2019-01-29T17:01:12.551Z,2.10
2019-01-29T17:03:36.059Z,2.00
2019-01-29T17:06:04.062Z,2.00
2019-01-29T17:08:31.467Z,2.00
2019-01-29T17:10:59.444Z,1.80
2019-01-29T17:13:28.031Z,1.70
2019-01-29T17:15:55.794Z,1.70
2019-01-29T17:18:23.760Z,1.60
2019-01-29T17:20:51.306Z,1.50
2019-01-29T17:23:19.183Z,1.50
2019-01-29T17:25:49.468Z,1.50
2019-01-29T17:28:19.019Z,1.50
2019-01-29T17:30:47.455Z,1.50
2019-01-29T17:33:17.692Z,1.50
2019-01-29T17:35:47.914Z,1.50
2019-01-29T17:38:17.816Z,1.40
2019-01-29T17:40:48.914Z,1.30
2019-01-29T17:43:20.657Z,1.30
2019-01-29T17:45:54.406Z,1.30
2019-01-29T17:48:22.778Z,1.20
2019-01-29T17:50:50.401Z,1.10
2019-01-29T17:53:17.941Z,1.10
2019-01-29T17:55:45.597Z,1.00
2019-01-29T17:58:13.737Z,1.00
2019-01-29T18:00:44.288Z,1.00
2019-01-29T18:03:12.565Z,0.90
2019-01-29T18:05:40.491Z,0.90
2019-01-29T18:08:08.277Z,0.90
2019-01-29T18:10:35.914Z,0.90
2019-01-29T18:13:03.667Z,0.70
2019-01-29T18:15:31.378Z,0.50
2019-01-29T18:17:59.521Z,0.50
2019-01-29T18:20:46.629Z,0.50
2019-01-29T18:23:14.140Z,0.90
2019-01-29T18:25:41.762Z,0.60
2019-01-29T18:28:09.642Z,0.50
2019-01-29T18:30:37.495Z,0.40
2019-01-29T18:33:06.226Z,0.30
2019-01-29T18:35:42.851Z,0.20
2019-01-29T18:38:10.936Z,0.20
2019-01-29T18:40:41.716Z,0.30
2019-01-29T18:43:09.437Z,0.30
2019-01-29T18:45:37.184Z,0.30
2019-01-29T18:48:07.158Z,0.60
2019-01-29T18:50:35.266Z,0.70
2019-01-29T18:53:03.618Z,0.70
2019-01-29T18:55:33.264Z,0.60
2019-01-29T18:58:11.686Z,0.60
2019-01-29T19:00:33.311Z,0.40
2019-01-29T19:03:05.395Z,0.30
2019-01-29T19:05:35.906Z,0.50
2019-01-29T19:08:03.714Z,0.20
2019-01-29T19:10:31.550Z,0.30
2019-01-29T19:12:59.440Z,0.30
2019-01-29T19:15:26.962Z,0.20
2019-01-29T19:17:54.556Z,0.10
2019-01-29T19:20:23.209Z,0.00
2019-01-29T19:22:51.151Z,0.00
2019-01-29T19:25:18.828Z,0.10
2019-01-29T19:27:47.091Z,0.00
2019-01-29T19:30:17.458Z,0.00
2019-01-29T19:32:45.045Z,-0.10
2019-01-29T19:35:19.294Z,-0.10
2019-01-29T19:37:46.902Z,-0.10
2019-01-29T19:40:14.661Z,-0.20
2019-01-29T19:42:42.320Z,-0.10
2019-01-29T19:45:15.179Z,-0.20
2019-01-29T19:47:42.801Z,-0.20
2019-01-29T19:50:14.347Z,-0.20
2019-01-29T19:52:44.688Z,-0.20
2019-01-29T19:55:12.300Z,-0.30
2019-01-29T19:57:40.382Z,-0.40
2019-01-29T20:00:14.672Z,-0.30
2019-01-29T20:02:42.812Z,-0.30
2019-01-29T20:05:10.532Z,-0.30
2019-01-29T20:07:38.112Z,-0.30
2019-01-29T20:10:09.903Z,-0.40
2019-01-29T20:12:37.489Z,-0.30
2019-01-29T20:15:06.765Z,-0.30
2019-01-29T20:17:34.323Z,-0.30
2019-01-29T20:20:02.162Z,-0.30
2019-01-29T20:22:29.741Z,-0.40
2019-01-29T20:25:02.698Z,-0.40
2019-01-29T20:27:30.711Z,-0.50
2019-01-29T20:29:59.406Z,-0.50
2019-01-29T20:32:28.482Z,-0.50
2019-01-29T20:34:55.995Z,-0.40
2019-01-29T20:37:23.620Z,-0.40
2019-01-29T20:39:51.888Z,-0.40
2019-01-29T20:42:19.462Z,-0.50
2019-01-29T20:44:47.365Z,-0.50
2019-01-29T20:47:14.875Z,-0.70
2019-01-29T20:49:42.942Z,-0.70
2019-01-29T20:52:12.477Z,-0.80
2019-01-29T20:54:46.327Z,-0.70
2019-01-29T20:57:14.156Z,-0.80
2019-01-29T20:59:41.694Z,-0.70
2019-01-29T21:02:09.296Z,-0.80
2019-01-29T21:04:36.959Z,-0.70
2019-01-29T21:07:04.740Z,-0.80
2019-01-29T21:09:33.375Z,-0.70
2019-01-29T21:12:01.430Z,-0.60
2019-01-29T21:14:28.999Z,-0.60
2019-01-29T21:16:56.570Z,-0.70
2019-01-29T21:19:24.420Z,-0.60
2019-01-29T21:21:52.355Z,-0.60
2019-01-29T21:24:19.927Z,-0.60
2019-01-29T21:26:47.786Z,-0.70
2019-01-29T21:29:15.953Z,-0.50
2019-01-29T21:31:43.713Z,-0.60
2019-01-29T21:34:11.646Z,-0.60
2019-01-29T21:36:39.087Z,-0.60
2019-01-29T21:39:08.539Z,-0.60
2019-01-29T21:41:35.964Z,-0.60
2019-01-29T21:44:04.206Z,-0.60
2019-01-29T21:46:32.120Z,-0.40
2019-01-29T21:48:59.881Z,-0.50
2019-01-29T21:51:27.443Z,-0.40
2019-01-29T21:53:55.224Z,-0.40
2019-01-29T21:56:26.867Z,-0.40
2019-01-29T21:58:54.319Z,-0.50
2019-01-29T22:01:22.069Z,-0.50
2019-01-29T22:03:49.517Z,-0.50
2019-01-29T22:06:16.997Z,-0.60
2019-01-29T22:08:44.787Z,-0.60
2019-01-29T22:11:12.270Z,-0.60
2019-01-29T22:13:40.416Z,-0.60
2019-01-29T22:16:07.949Z,-0.70
2019-01-29T22:18:35.807Z,-0.80
2019-01-29T22:21:03.667Z,-0.80
2019-01-29T22:23:31.784Z,-0.80
2019-01-29T22:25:59.640Z,-0.90
2019-01-29T22:28:27.117Z,-0.90
2019-01-29T22:30:54.707Z,-1.00
2019-01-29T22:33:22.271Z,-1.00
2019-01-29T22:35:50.118Z,-1.00
2019-01-29T22:38:18.236Z,-1.10
2019-01-29T22:40:45.904Z,-1.00
2019-01-29T22:43:13.713Z,-1.00
2019-01-29T22:45:41.593Z,-1.00
2019-01-29T22:48:09.550Z,-1.10
2019-01-29T22:50:39.086Z,-1.10
2019-01-29T22:53:07.040Z,-1.10
2019-01-29T22:55:34.598Z,-1.10
2019-01-29T22:58:03.857Z,-1.10
2019-01-29T23:01:14.103Z,-1.10
2019-01-29T23:03:44.396Z,-1.30
2019-01-29T23:06:37.050Z,-1.30
2019-01-29T23:09:09.018Z,-1.20
2019-01-29T23:11:36.814Z,-1.20
2019-01-29T23:14:05.758Z,-1.20
2019-01-29T23:16:33.272Z,-1.20
2019-01-29T23:19:00.801Z,-1.10
2019-01-29T23:21:28.379Z,-1.10
2019-01-29T23:23:56.112Z,-1.20
2019-01-29T23:26:23.829Z,-1.20
2019-01-29T23:28:51.662Z,-1.20
2019-01-29T23:31:19.146Z,-1.20
2019-01-29T23:33:47.240Z,-1.30
2019-01-29T23:36:15.204Z,-1.30
2019-01-29T23:38:42.799Z,-1.30
2019-01-29T23:41:30.093Z,-1.30
2019-01-29T23:43:57.917Z,-0.80
2019-01-29T23:46:27.132Z,-0.50
2019-01-29T23:48:55.058Z,-0.30
2019-01-29T23:51:22.512Z,-1.30
2019-01-29T23:53:50.102Z,-1.30
2019-01-29T23:56:17.624Z,-1.30
2019-01-29T23:58:45.784Z,-1.30
